sensor_id;sensor_type;location;lat;lon;timestamp;pressure;altitude;pressure_sealevel;temperature;humidity
5053;BME280;2545;50.892;5.740;2023-04-06T00:00:34;56068.94;;;-142.21;76.46
5053;BME280;2545;50.892;5.740;2023-04-06T00:02:59;56053.25;;;-142.21;76.33
5053;BME280;2545;50.892;5.740;2023-04-06T00:05:24;56088.56;;;-142.21;76.56
5053;BME280;2545;50.892;5.740;2023-04-06T00:07:50;56065.03;;;-142.21;76.49
5053;BME280;2545;50.892;5.740;2023-04-06T00:10:16;56053.25;;;-142.21;77.15
5053;BME280;2545;50.892;5.740;2023-04-06T00:12:42;56092.47;;;-142.21;77.71
5053;BME280;2545;50.892;5.740;2023-04-06T00:15:07;56112.09;;;-142.21;77.88
5053;BME280;2545;50.892;5.740;2023-04-06T00:17:33;56094.44;;;-142.21;77.62
5053;BME280;2545;50.892;5.740;2023-04-06T00:19:58;56094.44;;;-142.21;77.31
5053;BME280;2545;50.892;5.740;2023-04-06T00:22:23;56078.75;;;-142.21;77.10
5053;BME280;2545;50.892;5.740;2023-04-06T00:24:49;56090.53;;;-142.21;76.60
5053;BME280;2545;50.892;5.740;2023-04-06T00:27:14;56045.41;;;-142.21;76.52
5053;BME280;2545;50.892;5.740;2023-04-06T00:29:39;56100.31;;;-142.21;76.59
5053;BME280;2545;50.892;5.740;2023-04-06T00:32:05;56102.28;;;-142.21;77.24
5053;BME280;2545;50.892;5.740;2023-04-06T00:34:30;56072.88;;;-142.21;77.02
5053;BME280;2545;50.892;5.740;2023-04-06T00:36:56;56061.09;;;-142.21;76.85
5053;BME280;2545;50.892;5.740;2023-04-06T00:39:21;56090.53;;;-142.21;77.34
5053;BME280;2545;50.892;5.740;2023-04-06T00:41:50;56074.84;;;-142.21;78.02
5053;BME280;2545;50.892;5.740;2023-04-06T00:44:16;56092.47;;;-142.21;78.18
5053;BME280;2545;50.892;5.740;2023-04-06T00:46:41;56068.94;;;-142.21;78.00
5053;BME280;2545;50.892;5.740;2023-04-06T00:49:06;56072.88;;;-142.21;78.07
5053;BME280;2545;50.892;5.740;2023-04-06T00:51:32;56088.56;;;-142.21;78.14
5053;BME280;2545;50.892;5.740;2023-04-06T00:53:57;56078.75;;;-142.21;77.88
5053;BME280;2545;50.892;5.740;2023-04-06T00:56:22;56108.16;;;-142.21;77.65
5053;BME280;2545;50.892;5.740;2023-04-06T00:58:49;56070.91;;;-142.21;77.40
5053;BME280;2545;50.892;5.740;2023-04-06T01:01:14;56049.34;;;-142.21;77.62
5053;BME280;2545;50.892;5.740;2023-04-06T01:03:40;56063.06;;;-142.21;77.88
5053;BME280;2545;50.892;5.740;2023-04-06T01:06:07;56078.75;;;-142.21;77.47
5053;BME280;2545;50.892;5.740;2023-04-06T01:08:32;56076.78;;;-142.21;77.45
5053;BME280;2545;50.892;5.740;2023-04-06T01:10:59;56061.09;;;-142.21;77.17
5053;BME280;2545;50.892;5.740;2023-04-06T01:13:26;56092.47;;;-142.21;77.60
5053;BME280;2545;50.892;5.740;2023-04-06T01:15:51;56076.78;;;-142.21;78.16
5053;BME280;2545;50.892;5.740;2023-04-06T01:18:17;56053.25;;;-142.21;78.46
5053;BME280;2545;50.892;5.740;2023-04-06T01:20:42;56049.34;;;-142.21;78.45
5053;BME280;2545;50.892;5.740;2023-04-06T01:23:07;56090.53;;;-142.21;78.57
5053;BME280;2545;50.892;5.740;2023-04-06T01:25:32;56088.56;;;-142.21;78.68
5053;BME280;2545;50.892;5.740;2023-04-06T01:27:58;56086.59;;;-142.21;78.75
5053;BME280;2545;50.892;5.740;2023-04-06T01:30:23;56086.59;;;-142.21;79.15
5053;BME280;2545;50.892;5.740;2023-04-06T01:32:48;56084.63;;;-142.21;79.02
5053;BME280;2545;50.892;5.740;2023-04-06T01:35:14;56051.31;;;-142.21;79.18
5053;BME280;2545;50.892;5.740;2023-04-06T01:37:39;56092.47;;;-142.21;79.11
5053;BME280;2545;50.892;5.740;2023-04-06T01:40:05;56065.03;;;-142.21;79.33
5053;BME280;2545;50.892;5.740;2023-04-06T01:42:31;56057.19;;;-142.21;79.41
5053;BME280;2545;50.892;5.740;2023-04-06T01:44:56;56063.06;;;-142.21;79.23
5053;BME280;2545;50.892;5.740;2023-04-06T01:47:22;56063.06;;;-142.21;79.66
5053;BME280;2545;50.892;5.740;2023-04-06T01:49:47;56078.75;;;-142.21;79.52
5053;BME280;2545;50.892;5.740;2023-04-06T01:52:12;56055.22;;;-142.21;79.33
5053;BME280;2545;50.892;5.740;2023-04-06T01:54:39;56078.75;;;-142.21;79.04
5053;BME280;2545;50.892;5.740;2023-04-06T01:57:04;56096.41;;;-142.21;79.02
5053;BME280;2545;50.892;5.740;2023-04-06T01:59:30;56094.44;;;-142.21;78.98
5053;BME280;2545;50.892;5.740;2023-04-06T02:01:55;56072.88;;;-142.21;79.25
5053;BME280;2545;50.892;5.740;2023-04-06T02:04:20;56076.78;;;-142.21;79.02
5053;BME280;2545;50.892;5.740;2023-04-06T02:06:46;56088.56;;;-142.21;79.06
5053;BME280;2545;50.892;5.740;2023-04-06T02:09:11;56084.63;;;-142.21;79.43
5053;BME280;2545;50.892;5.740;2023-04-06T02:11:36;56080.72;;;-142.21;79.92
5053;BME280;2545;50.892;5.740;2023-04-06T02:14:02;56070.91;;;-142.21;80.26
5053;BME280;2545;50.892;5.740;2023-04-06T02:16:27;56068.94;;;-142.21;80.43
5053;BME280;2545;50.892;5.740;2023-04-06T02:18:52;56063.06;;;-142.21;80.85
5053;BME280;2545;50.892;5.740;2023-04-06T02:21:18;56049.34;;;-142.21;80.94
5053;BME280;2545;50.892;5.740;2023-04-06T02:23:46;56061.09;;;-142.21;81.16
5053;BME280;2545;50.892;5.740;2023-04-06T02:26:11;56076.78;;;-142.21;81.58
5053;BME280;2545;50.892;5.740;2023-04-06T02:28:37;56096.41;;;-142.21;82.00
5053;BME280;2545;50.892;5.740;2023-04-06T02:31:02;56072.88;;;-142.21;82.49
5053;BME280;2545;50.892;5.740;2023-04-06T02:33:27;56084.63;;;-142.21;82.33
5053;BME280;2545;50.892;5.740;2023-04-06T02:35:53;56065.03;;;-142.21;82.58
5053;BME280;2545;50.892;5.740;2023-04-06T02:38:18;56084.63;;;-142.21;82.84
5053;BME280;2545;50.892;5.740;2023-04-06T02:40:43;56067.00;;;-142.21;83.05
5053;BME280;2545;50.892;5.740;2023-04-06T02:43:08;56053.25;;;-142.21;82.81
5053;BME280;2545;50.892;5.740;2023-04-06T02:45:34;56104.25;;;-142.21;82.61
5053;BME280;2545;50.892;5.740;2023-04-06T02:47:59;56102.28;;;-142.21;82.64
5053;BME280;2545;50.892;5.740;2023-04-06T02:50:25;56072.88;;;-142.21;82.92
5053;BME280;2545;50.892;5.740;2023-04-06T02:52:52;56065.03;;;-142.21;82.86
5053;BME280;2545;50.892;5.740;2023-04-06T02:55:17;56063.06;;;-142.21;82.76
5053;BME280;2545;50.892;5.740;2023-04-06T02:57:43;56076.78;;;-142.21;82.26
5053;BME280;2545;50.892;5.740;2023-04-06T03:00:09;56106.22;;;-142.21;82.05
5053;BME280;2545;50.892;5.740;2023-04-06T03:02:34;56110.13;;;-142.21;81.49
5053;BME280;2545;50.892;5.740;2023-04-06T03:05:00;56027.78;;;-142.21;81.24
5053;BME280;2545;50.892;5.740;2023-04-06T03:07:25;56076.78;;;-142.21;81.31
5053;BME280;2545;50.892;5.740;2023-04-06T03:09:50;56035.63;;;-142.21;80.25
5053;BME280;2545;50.892;5.740;2023-04-06T03:12:16;56068.94;;;-142.21;79.66
5053;BME280;2545;50.892;5.740;2023-04-06T03:14:41;56074.84;;;-142.21;78.91
5053;BME280;2545;50.892;5.740;2023-04-06T03:17:06;56112.09;;;-142.21;78.61
5053;BME280;2545;50.892;5.740;2023-04-06T03:19:31;56072.88;;;-142.21;78.48
5053;BME280;2545;50.892;5.740;2023-04-06T03:21:57;56110.13;;;-142.21;78.18
5053;BME280;2545;50.892;5.740;2023-04-06T03:24:22;56070.91;;;-142.21;77.68
5053;BME280;2545;50.892;5.740;2023-04-06T03:26:48;56082.69;;;-142.21;77.30
5053;BME280;2545;50.892;5.740;2023-04-06T03:29:13;56067.00;;;-142.21;77.26
5053;BME280;2545;50.892;5.740;2023-04-06T03:31:38;56055.22;;;-142.21;77.19
5053;BME280;2545;50.892;5.740;2023-04-06T03:34:03;56057.19;;;-142.21;77.37
5053;BME280;2545;50.892;5.740;2023-04-06T03:36:29;56102.28;;;-142.21;77.92
5053;BME280;2545;50.892;5.740;2023-04-06T03:38:55;56045.41;;;-142.21;77.62
5053;BME280;2545;50.892;5.740;2023-04-06T03:41:20;56088.56;;;-142.21;77.33
5053;BME280;2545;50.892;5.740;2023-04-06T03:43:46;56070.91;;;-142.21;77.42
5053;BME280;2545;50.892;5.740;2023-04-06T03:46:11;56076.78;;;-142.21;77.40
5053;BME280;2545;50.892;5.740;2023-04-06T03:48:36;56092.47;;;-142.21;77.72
5053;BME280;2545;50.892;5.740;2023-04-06T03:51:02;56116.00;;;-142.21;77.67
5053;BME280;2545;50.892;5.740;2023-04-06T03:53:27;56106.22;;;-142.21;77.78
5053;BME280;2545;50.892;5.740;2023-04-06T03:55:52;56088.56;;;-142.21;77.72
5053;BME280;2545;50.892;5.740;2023-04-06T03:58:17;56090.53;;;-142.21;78.02
5053;BME280;2545;50.892;5.740;2023-04-06T04:00:43;56096.41;;;-142.21;78.01
5053;BME280;2545;50.892;5.740;2023-04-06T04:03:08;56100.31;;;-142.21;77.89
5053;BME280;2545;50.892;5.740;2023-04-06T04:05:33;56096.41;;;-142.21;77.93
5053;BME280;2545;50.892;5.740;2023-04-06T04:07:59;56055.22;;;-142.21;78.20
5053;BME280;2545;50.892;5.740;2023-04-06T04:10:24;56072.88;;;-142.21;78.37
5053;BME280;2545;50.892;5.740;2023-04-06T04:12:49;56059.16;;;-142.21;78.49
5053;BME280;2545;50.892;5.740;2023-04-06T04:15:15;56065.03;;;-142.21;78.66
5053;BME280;2545;50.892;5.740;2023-04-06T04:17:40;56076.78;;;-142.21;78.68
5053;BME280;2545;50.892;5.740;2023-04-06T04:20:06;56053.25;;;-142.21;78.38
5053;BME280;2545;50.892;5.740;2023-04-06T04:22:32;56072.88;;;-142.21;78.25
5053;BME280;2545;50.892;5.740;2023-04-06T04:24:58;56072.88;;;-142.21;78.44
5053;BME280;2545;50.892;5.740;2023-04-06T04:27:24;56068.94;;;-142.21;78.27
5053;BME280;2545;50.892;5.740;2023-04-06T04:29:49;56072.88;;;-142.21;77.68
5053;BME280;2545;50.892;5.740;2023-04-06T04:32:16;56084.63;;;-142.21;77.72
5053;BME280;2545;50.892;5.740;2023-04-06T04:34:41;56065.03;;;-142.21;77.72
5053;BME280;2545;50.892;5.740;2023-04-06T04:37:06;56082.69;;;-142.21;77.83
5053;BME280;2545;50.892;5.740;2023-04-06T04:39:32;56088.56;;;-142.21;77.75
5053;BME280;2545;50.892;5.740;2023-04-06T04:41:57;56078.75;;;-142.21;77.98
5053;BME280;2545;50.892;5.740;2023-04-06T04:44:23;56057.19;;;-142.21;77.97
5053;BME280;2545;50.892;5.740;2023-04-06T04:46:48;56092.47;;;-142.21;77.92
5053;BME280;2545;50.892;5.740;2023-04-06T04:49:13;56043.47;;;-142.21;77.62
5053;BME280;2545;50.892;5.740;2023-04-06T04:51:39;56061.09;;;-142.21;77.97
5053;BME280;2545;50.892;5.740;2023-04-06T04:54:04;56088.56;;;-142.21;77.92
5053;BME280;2545;50.892;5.740;2023-04-06T04:56:29;56104.25;;;-142.21;78.12
5053;BME280;2545;50.892;5.740;2023-04-06T04:58:55;56088.56;;;-142.21;78.13
5053;BME280;2545;50.892;5.740;2023-04-06T05:01:20;56110.13;;;-142.21;77.19
5053;BME280;2545;50.892;5.740;2023-04-06T05:03:45;56006.22;;;-142.21;77.17
5053;BME280;2545;50.892;5.740;2023-04-06T05:06:11;56084.63;;;-142.21;77.10
5053;BME280;2545;50.892;5.740;2023-04-06T05:08:36;56067.00;;;-142.21;77.47
5053;BME280;2545;50.892;5.740;2023-04-06T05:11:01;56063.06;;;-142.21;77.52
5053;BME280;2545;50.892;5.740;2023-04-06T05:13:27;56092.47;;;-142.21;77.58
5053;BME280;2545;50.892;5.740;2023-04-06T05:15:52;56098.38;;;-142.21;77.88
5053;BME280;2545;50.892;5.740;2023-04-06T05:18:17;56076.78;;;-142.21;77.88
5053;BME280;2545;50.892;5.740;2023-04-06T05:20:43;56078.75;;;-142.21;77.67
5053;BME280;2545;50.892;5.740;2023-04-06T05:23:08;56045.41;;;-142.21;77.49
5053;BME280;2545;50.892;5.740;2023-04-06T05:25:33;56051.31;;;-142.21;77.17
5053;BME280;2545;50.892;5.740;2023-04-06T05:27:59;56094.44;;;-142.21;76.90
5053;BME280;2545;50.892;5.740;2023-04-06T05:30:25;56080.72;;;-142.21;76.96
5053;BME280;2545;50.892;5.740;2023-04-06T05:32:50;56074.84;;;-142.21;77.09
5053;BME280;2545;50.892;5.740;2023-04-06T05:35:16;56094.44;;;-142.21;77.22
5053;BME280;2545;50.892;5.740;2023-04-06T05:37:42;56068.94;;;-142.21;77.42
5053;BME280;2545;50.892;5.740;2023-04-06T05:40:07;56084.63;;;-142.21;77.56
5053;BME280;2545;50.892;5.740;2023-04-06T05:42:37;56072.88;;;-142.21;77.33
5053;BME280;2545;50.892;5.740;2023-04-06T05:45:04;56068.94;;;-142.21;77.15
5053;BME280;2545;50.892;5.740;2023-04-06T05:47:30;56065.03;;;-142.21;76.75
5053;BME280;2545;50.892;5.740;2023-04-06T05:49:55;56076.78;;;-142.21;76.40
5053;BME280;2545;50.892;5.740;2023-04-06T05:52:20;56084.63;;;-142.21;75.99
5053;BME280;2545;50.892;5.740;2023-04-06T05:54:46;56080.72;;;-142.21;75.22
5053;BME280;2545;50.892;5.740;2023-04-06T05:57:11;56065.03;;;-142.21;75.41
5053;BME280;2545;50.892;5.740;2023-04-06T05:59:36;56070.91;;;-142.21;75.01
5053;BME280;2545;50.892;5.740;2023-04-06T06:02:02;56068.94;;;-142.21;74.54
5053;BME280;2545;50.892;5.740;2023-04-06T06:04:27;56061.09;;;-142.21;73.97
5053;BME280;2545;50.892;5.740;2023-04-06T06:06:52;56072.88;;;-142.21;74.83
5053;BME280;2545;50.892;5.740;2023-04-06T06:09:17;56061.09;;;-142.21;74.16
5053;BME280;2545;50.892;5.740;2023-04-06T06:11:43;56074.84;;;-142.21;73.62
5053;BME280;2545;50.892;5.740;2023-04-06T06:14:08;56092.47;;;-142.21;73.34
5053;BME280;2545;50.892;5.740;2023-04-06T06:16:33;56098.38;;;-142.21;71.83
5053;BME280;2545;50.892;5.740;2023-04-06T06:18:59;56102.28;;;-142.21;70.87
5053;BME280;2545;50.892;5.740;2023-04-06T06:21:24;56074.84;;;-142.21;70.48
5053;BME280;2545;50.892;5.740;2023-04-06T06:23:49;56078.75;;;-142.21;70.10
5053;BME280;2545;50.892;5.740;2023-04-06T06:26:15;56100.31;;;-142.21;69.48
5053;BME280;2545;50.892;5.740;2023-04-06T06:28:41;56086.59;;;-142.21;70.38
5053;BME280;2545;50.892;5.740;2023-04-06T06:31:06;56070.91;;;-142.21;69.79
5053;BME280;2545;50.892;5.740;2023-04-06T06:33:32;56098.38;;;-142.21;68.56
5053;BME280;2545;50.892;5.740;2023-04-06T06:35:57;56082.69;;;-142.21;67.71
5053;BME280;2545;50.892;5.740;2023-04-06T06:38:22;56117.97;;;-142.21;65.70
5053;BME280;2545;50.892;5.740;2023-04-06T06:40:48;56039.53;;;-142.21;66.19
5053;BME280;2545;50.892;5.740;2023-04-06T06:43:13;56053.25;;;-142.21;65.54
5053;BME280;2545;50.892;5.740;2023-04-06T06:45:38;56086.59;;;-142.21;65.31
5053;BME280;2545;50.892;5.740;2023-04-06T06:48:04;56098.38;;;-142.21;64.95
5053;BME280;2545;50.892;5.740;2023-04-06T06:50:29;56080.72;;;-142.21;64.15
5053;BME280;2545;50.892;5.740;2023-04-06T06:52:54;56061.09;;;-142.21;63.33
5053;BME280;2545;50.892;5.740;2023-04-06T06:55:20;56074.84;;;-142.21;63.60
5053;BME280;2545;50.892;5.740;2023-04-06T06:57:45;56088.56;;;-142.21;62.97
5053;BME280;2545;50.892;5.740;2023-04-06T07:00:12;56084.63;;;-142.21;62.56
5053;BME280;2545;50.892;5.740;2023-04-06T07:02:38;56084.63;;;-142.21;62.58
5053;BME280;2545;50.892;5.740;2023-04-06T07:05:03;56065.03;;;-142.21;62.51
5053;BME280;2545;50.892;5.740;2023-04-06T07:07:31;56084.63;;;-142.21;61.81
5053;BME280;2545;50.892;5.740;2023-04-06T07:09:56;56068.94;;;-142.21;60.68
5053;BME280;2545;50.892;5.740;2023-04-06T07:12:22;56096.41;;;-142.21;61.16
5053;BME280;2545;50.892;5.740;2023-04-06T07:14:47;56078.75;;;-142.21;60.38
5053;BME280;2545;50.892;5.740;2023-04-06T07:17:12;56110.13;;;-142.21;59.83
5053;BME280;2545;50.892;5.740;2023-04-06T07:19:38;56100.31;;;-142.21;59.51
5053;BME280;2545;50.892;5.740;2023-04-06T07:22:04;56117.97;;;-142.21;58.83
5053;BME280;2545;50.892;5.740;2023-04-06T07:24:30;56123.84;;;-142.21;58.19
5053;BME280;2545;50.892;5.740;2023-04-06T07:26:55;56088.56;;;-142.21;57.48
5053;BME280;2545;50.892;5.740;2023-04-06T07:29:21;56102.28;;;-142.21;56.53
5053;BME280;2545;50.892;5.740;2023-04-06T07:31:48;56061.09;;;-142.21;57.31
5053;BME280;2545;50.892;5.740;2023-04-06T07:34:14;56098.38;;;-142.21;56.86
5053;BME280;2545;50.892;5.740;2023-04-06T07:36:39;56078.75;;;-142.21;55.68
5053;BME280;2545;50.892;5.740;2023-04-06T07:39:04;56068.94;;;-142.21;55.79
5053;BME280;2545;50.892;5.740;2023-04-06T07:41:30;56094.44;;;-142.21;55.25
5053;BME280;2545;50.892;5.740;2023-04-06T07:43:55;56088.56;;;-142.21;53.30
5053;BME280;2545;50.892;5.740;2023-04-06T07:46:20;56068.94;;;-142.21;53.53
5053;BME280;2545;50.892;5.740;2023-04-06T07:48:46;56084.63;;;-142.21;53.12
5053;BME280;2545;50.892;5.740;2023-04-06T07:51:11;56068.94;;;-142.21;53.12
5053;BME280;2545;50.892;5.740;2023-04-06T07:53:39;56080.72;;;-142.21;51.93
5053;BME280;2545;50.892;5.740;2023-04-06T07:56:05;56067.00;;;-142.21;51.57
5053;BME280;2545;50.892;5.740;2023-04-06T07:58:30;56033.66;;;-142.21;50.70
5053;BME280;2545;50.892;5.740;2023-04-06T08:00:56;56096.41;;;-142.21;51.00
5053;BME280;2545;50.892;5.740;2023-04-06T08:03:23;56076.78;;;-142.21;51.02
5053;BME280;2545;50.892;5.740;2023-04-06T08:05:51;56045.41;;;-142.21;51.11
5053;BME280;2545;50.892;5.740;2023-04-06T08:08:17;56084.63;;;-142.21;51.15
5053;BME280;2545;50.892;5.740;2023-04-06T08:10:42;56065.03;;;-142.21;50.61
5053;BME280;2545;50.892;5.740;2023-04-06T08:13:07;56068.94;;;-142.21;50.58
5053;BME280;2545;50.892;5.740;2023-04-06T08:15:33;56100.31;;;-142.21;50.22
5053;BME280;2545;50.892;5.740;2023-04-06T08:17:58;56049.34;;;-142.21;49.44
5053;BME280;2545;50.892;5.740;2023-04-06T08:20:24;56080.72;;;-142.21;49.45
5053;BME280;2545;50.892;5.740;2023-04-06T08:22:49;56049.34;;;-142.21;50.10
5053;BME280;2545;50.892;5.740;2023-04-06T08:25:15;56106.22;;;-142.21;49.92
5053;BME280;2545;50.892;5.740;2023-04-06T08:27:40;56117.97;;;-142.21;49.46
5053;BME280;2545;50.892;5.740;2023-04-06T08:30:06;56067.00;;;-142.21;49.89
5053;BME280;2545;50.892;5.740;2023-04-06T08:32:31;56088.56;;;-142.21;50.00
5053;BME280;2545;50.892;5.740;2023-04-06T08:34:56;56043.47;;;-142.21;50.31
5053;BME280;2545;50.892;5.740;2023-04-06T08:37:22;56043.47;;;-142.21;50.47
5053;BME280;2545;50.892;5.740;2023-04-06T08:39:48;56080.72;;;-142.21;50.29
5053;BME280;2545;50.892;5.740;2023-04-06T08:42:20;56082.69;;;-142.21;50.54
5053;BME280;2545;50.892;5.740;2023-04-06T08:44:48;56096.41;;;-142.21;50.25
5053;BME280;2545;50.892;5.740;2023-04-06T08:47:13;56065.03;;;-142.21;50.35
5053;BME280;2545;50.892;5.740;2023-04-06T08:49:39;56088.56;;;-142.21;49.87
5053;BME280;2545;50.892;5.740;2023-04-06T08:52:07;56049.34;;;-142.21;49.99
5053;BME280;2545;50.892;5.740;2023-04-06T08:54:34;56082.69;;;-142.21;50.38
5053;BME280;2545;50.892;5.740;2023-04-06T08:57:01;56074.84;;;-142.21;50.55
5053;BME280;2545;50.892;5.740;2023-04-06T08:59:27;56074.84;;;-142.21;50.72
5053;BME280;2545;50.892;5.740;2023-04-06T09:01:53;56072.88;;;-142.21;49.92
5053;BME280;2545;50.892;5.740;2023-04-06T09:04:19;56070.91;;;-142.21;48.73
5053;BME280;2545;50.892;5.740;2023-04-06T09:06:45;56063.06;;;-142.21;48.85
5053;BME280;2545;50.892;5.740;2023-04-06T09:09:10;56065.03;;;-142.21;48.28
5053;BME280;2545;50.892;5.740;2023-04-06T09:11:48;56043.47;;;-142.21;48.23
5053;BME280;2545;50.892;5.740;2023-04-06T09:14:14;56067.00;;;-142.21;48.48
5053;BME280;2545;50.892;5.740;2023-04-06T09:16:41;56096.41;;;-142.21;47.38
5053;BME280;2545;50.892;5.740;2023-04-06T09:19:07;56059.16;;;-142.21;47.13
5053;BME280;2545;50.892;5.740;2023-04-06T09:21:32;56063.06;;;-142.21;47.89
5053;BME280;2545;50.892;5.740;2023-04-06T09:24:01;56063.06;;;-142.21;47.69
5053;BME280;2545;50.892;5.740;2023-04-06T09:26:27;56057.19;;;-142.21;47.18
5053;BME280;2545;50.892;5.740;2023-04-06T09:28:54;56090.53;;;-142.21;46.84
5053;BME280;2545;50.892;5.740;2023-04-06T09:31:28;56082.69;;;-142.21;46.15
5053;BME280;2545;50.892;5.740;2023-04-06T09:33:55;56065.03;;;-142.21;46.04
5053;BME280;2545;50.892;5.740;2023-04-06T09:36:35;56065.03;;;-142.21;46.52
5053;BME280;2545;50.892;5.740;2023-04-06T09:39:04;56039.53;;;-142.21;44.97
5053;BME280;2545;50.892;5.740;2023-04-06T09:41:34;56041.50;;;-142.21;45.34
5053;BME280;2545;50.892;5.740;2023-04-06T09:44:12;56068.94;;;-142.21;45.31
5053;BME280;2545;50.892;5.740;2023-04-06T09:46:39;56059.16;;;-142.21;46.40
5053;BME280;2545;50.892;5.740;2023-04-06T09:49:06;56045.41;;;-142.21;47.16
5053;BME280;2545;50.892;5.740;2023-04-06T09:51:44;56068.94;;;-142.21;46.31
5053;BME280;2545;50.892;5.740;2023-04-06T09:54:11;56049.34;;;-142.21;47.26
5053;BME280;2545;50.892;5.740;2023-04-06T09:56:46;56070.91;;;-142.21;47.80
5053;BME280;2545;50.892;5.740;2023-04-06T09:59:29;56045.41;;;-142.21;48.02
5053;BME280;2545;50.892;5.740;2023-04-06T10:01:58;56063.06;;;-142.21;48.65
5053;BME280;2545;50.892;5.740;2023-04-06T10:04:39;56094.44;;;-142.21;48.67
5053;BME280;2545;50.892;5.740;2023-04-06T10:07:07;56088.56;;;-142.21;48.46
5053;BME280;2545;50.892;5.740;2023-04-06T10:09:35;56041.50;;;-142.21;49.18
5053;BME280;2545;50.892;5.740;2023-04-06T10:12:03;56084.63;;;-142.21;49.23
5053;BME280;2545;50.892;5.740;2023-04-06T10:14:31;56057.19;;;-142.21;48.57
5053;BME280;2545;50.892;5.740;2023-04-06T10:16:58;56010.13;;;-142.21;49.53
5053;BME280;2545;50.892;5.740;2023-04-06T10:19:26;56055.22;;;-142.21;49.83
5053;BME280;2545;50.892;5.740;2023-04-06T10:21:54;56074.84;;;-142.21;50.51
5053;BME280;2545;50.892;5.740;2023-04-06T10:24:22;56035.63;;;-142.21;52.21
5053;BME280;2545;50.892;5.740;2023-04-06T10:27:17;56025.81;;;-142.21;54.35
5053;BME280;2545;50.892;5.740;2023-04-06T10:29:52;56051.31;;;-142.21;54.44
5053;BME280;2545;50.892;5.740;2023-04-06T10:32:17;56063.06;;;-142.21;54.22
5053;BME280;2545;50.892;5.740;2023-04-06T10:34:42;56068.94;;;-142.21;55.45
5053;BME280;2545;50.892;5.740;2023-04-06T10:37:15;56072.88;;;-142.21;53.80
5053;BME280;2545;50.892;5.740;2023-04-06T10:39:52;56025.81;;;-142.21;53.33
5053;BME280;2545;50.892;5.740;2023-04-06T10:42:24;56047.38;;;-142.21;52.96
5053;BME280;2545;50.892;5.740;2023-04-06T10:44:49;56067.00;;;-142.21;54.78
5053;BME280;2545;50.892;5.740;2023-04-06T10:47:16;56072.88;;;-142.21;56.23
5053;BME280;2545;50.892;5.740;2023-04-06T10:49:45;56051.31;;;-142.21;58.13
5053;BME280;2545;50.892;5.740;2023-04-06T10:52:11;56074.84;;;-142.21;57.87
5053;BME280;2545;50.892;5.740;2023-04-06T10:54:41;56049.34;;;-142.21;60.12
5053;BME280;2545;50.892;5.740;2023-04-06T10:57:08;56027.78;;;-142.21;60.88
5053;BME280;2545;50.892;5.740;2023-04-06T10:59:33;56080.72;;;-142.21;61.05
5053;BME280;2545;50.892;5.740;2023-04-06T11:01:58;56049.34;;;-142.21;61.47
5053;BME280;2545;50.892;5.740;2023-04-06T11:04:24;56090.53;;;-142.21;62.85
5053;BME280;2545;50.892;5.740;2023-04-06T11:06:50;56068.94;;;-142.21;64.58
5053;BME280;2545;50.892;5.740;2023-04-06T11:11:50;56108.16;;;-142.21;68.50
5053;BME280;2545;50.892;5.740;2023-04-06T11:14:15;56102.28;;;-142.21;69.91
5053;BME280;2545;50.892;5.740;2023-04-06T11:16:41;56055.22;;;-142.21;74.11
5053;BME280;2545;50.892;5.740;2023-04-06T11:19:06;56104.25;;;-142.21;73.36
5053;BME280;2545;50.892;5.740;2023-04-06T11:21:37;56082.69;;;-142.21;74.80
5053;BME280;2545;50.892;5.740;2023-04-06T11:24:13;56049.34;;;-142.21;77.29
5053;BME280;2545;50.892;5.740;2023-04-06T11:26:47;56116.00;;;-142.21;78.31
5053;BME280;2545;50.892;5.740;2023-04-06T11:29:15;56055.22;;;-142.21;81.93
5053;BME280;2545;50.892;5.740;2023-04-06T11:31:52;56084.63;;;-142.21;81.12
5053;BME280;2545;50.892;5.740;2023-04-06T11:34:22;56076.78;;;-142.21;81.62
5053;BME280;2545;50.892;5.740;2023-04-06T11:36:49;56076.78;;;-142.21;82.51
5053;BME280;2545;50.892;5.740;2023-04-06T11:39:23;56088.56;;;-142.21;84.17
5053;BME280;2545;50.892;5.740;2023-04-06T11:41:59;56092.47;;;-142.21;84.48
5053;BME280;2545;50.892;5.740;2023-04-06T11:44:44;56082.69;;;-142.21;88.71
5053;BME280;2545;50.892;5.740;2023-04-06T11:47:14;56076.78;;;-142.21;88.76
5053;BME280;2545;50.892;5.740;2023-04-06T11:49:41;56057.19;;;-142.21;92.13
5053;BME280;2545;50.892;5.740;2023-04-06T11:52:26;56074.84;;;-142.21;90.80
5053;BME280;2545;50.892;5.740;2023-04-06T11:54:53;56078.75;;;-142.21;92.86
5053;BME280;2545;50.892;5.740;2023-04-06T11:57:20;56068.94;;;-142.21;95.81
5053;BME280;2545;50.892;5.740;2023-04-06T11:59:45;56114.06;;;-142.21;94.92
5053;BME280;2545;50.892;5.740;2023-04-06T12:02:11;56123.84;;;-142.21;96.84
5053;BME280;2545;50.892;5.740;2023-04-06T12:04:37;56110.13;;;-142.21;96.61
5053;BME280;2545;50.892;5.740;2023-04-06T12:07:03;56112.09;;;-142.21;94.03
5053;BME280;2545;50.892;5.740;2023-04-06T12:09:29;56123.84;;;-142.21;98.51
5053;BME280;2545;50.892;5.740;2023-04-06T12:11:54;56104.25;;;-142.21;100.00
5053;BME280;2545;50.892;5.740;2023-04-06T12:14:21;56082.69;;;-142.21;100.00
5053;BME280;2545;50.892;5.740;2023-04-06T12:16:47;56098.38;;;-142.21;100.00
5053;BME280;2545;50.892;5.740;2023-04-06T12:19:12;56139.53;;;-142.21;100.00
5053;BME280;2545;50.892;5.740;2023-04-06T12:21:37;56121.91;;;-142.21;100.00
5053;BME280;2545;50.892;5.740;2023-04-06T12:24:03;56096.41;;;-142.21;100.00
5053;BME280;2545;50.892;5.740;2023-04-06T12:26:30;56078.75;;;-142.21;100.00
5053;BME280;2545;50.892;5.740;2023-04-06T12:28:55;56121.91;;;-142.21;100.00
5053;BME280;2545;50.892;5.740;2023-04-06T12:31:22;56133.66;;;-142.21;100.00
5053;BME280;2545;50.892;5.740;2023-04-06T12:33:51;56100.31;;;-142.21;100.00
5053;BME280;2545;50.892;5.740;2023-04-06T12:36:18;56137.59;;;-142.21;100.00
5053;BME280;2545;50.892;5.740;2023-04-06T12:38:47;56096.41;;;-142.21;100.00
5053;BME280;2545;50.892;5.740;2023-04-06T12:41:13;56082.69;;;-142.21;100.00
5053;BME280;2545;50.892;5.740;2023-04-06T12:43:41;56135.63;;;-142.21;100.00
5053;BME280;2545;50.892;5.740;2023-04-06T12:46:07;56088.56;;;-142.21;100.00
5053;BME280;2545;50.892;5.740;2023-04-06T12:48:32;56116.00;;;-142.21;100.00
5053;BME280;2545;50.892;5.740;2023-04-06T12:50:59;56119.94;;;-142.21;100.00
5053;BME280;2545;50.892;5.740;2023-04-06T12:53:25;56110.13;;;-142.21;100.00
5053;BME280;2545;50.892;5.740;2023-04-06T12:55:51;56108.16;;;-142.21;100.00
5053;BME280;2545;50.892;5.740;2023-04-06T12:58:17;56104.25;;;-142.21;100.00